Time;durP1;ratioP1;P1;durP2;ratioP2;P2;SDS_P1;SDS_P2;PMS_P1;PMS_P2;Temp;Humidity;BMP_temperature;BMP_pressure;BME280_temperature;BME280_humidity;BME280_pressure;Samples;Min_cycle;Max_cycle;Signal;HPM_P1;HPM_P2
2022/08/31 00:05:55;;;;;;;2.78;0.20;;;17.10;84.90;;;;;;5039626;28;20057;-37
2022/08/31 00:08:21;;;;;;;1.27;0.30;;;17.10;85.00;;;;;;5037860;28;20047;-37
2022/08/31 00:10:48;;;;;;;1.00;0.30;;;17.10;85.20;;;;;;5034930;28;20037;-38
2022/08/31 00:13:14;;;;;;;0.68;0.20;;;17.10;86.40;;;;;;5038084;28;20431;-37
2022/08/31 00:15:40;;;;;;;0.82;0.30;;;17.10;85.80;;;;;;5044662;28;20051;-39
2022/08/31 00:18:06;;;;;;;2.38;0.25;;;17.00;85.90;;;;;;5035767;28;20029;-37
2022/08/31 00:20:32;;;;;;;1.85;0.40;;;17.00;85.90;;;;;;5040595;28;20265;-37
2022/08/31 00:22:58;;;;;;;0.57;0.28;;;17.00;86.10;;;;;;5041424;28;20061;-37
2022/08/31 00:25:24;;;;;;;0.70;0.30;;;17.00;86.50;;;;;;5034320;28;20124;-39
2022/08/31 00:27:49;;;;;;;2.75;0.22;;;17.00;86.50;;;;;;5039027;28;20139;-37
2022/08/31 00:30:15;;;;;;;0.85;0.30;;;16.90;86.70;;;;;;5035970;28;20772;-38
2022/08/31 00:32:41;;;;;;;2.33;0.30;;;16.90;86.90;;;;;;5038795;28;20049;-37
2022/08/31 00:35:07;;;;;;;1.20;0.25;;;16.90;86.80;;;;;;5033062;28;20404;-42
2022/08/31 00:37:33;;;;;;;1.10;0.35;;;16.80;86.90;;;;;;5040042;28;20036;-37
2022/08/31 00:39:58;;;;;;;0.50;0.20;;;16.80;87.10;;;;;;5036857;28;20036;-37
2022/08/31 00:42:24;;;;;;;1.15;0.30;;;16.80;87.00;;;;;;5033641;28;20045;-37
2022/08/31 00:44:50;;;;;;;2.13;0.40;;;16.80;87.20;;;;;;5034351;28;20040;-37
2022/08/31 00:47:17;;;;;;;1.70;0.30;;;16.70;87.20;;;;;;5032278;28;20045;-36
2022/08/31 00:49:49;;;;;;;0.75;0.30;;;16.70;87.40;;;;;;5037181;28;20128;-37
2022/08/31 00:52:36;;;;;;;0.60;0.30;;;16.70;87.40;;;;;;5035406;28;20040;-37
2022/08/31 00:55:10;;;;;;;0.70;0.30;;;16.60;87.90;;;;;;5032676;28;20295;-38
2022/08/31 00:57:38;;;;;;;0.73;0.30;;;16.60;87.90;;;;;;5040202;28;20037;-38
2022/08/31 01:00:09;;;;;;;1.75;0.25;;;16.50;87.90;;;;;;5034666;28;20665;-37
2022/08/31 01:02:35;;;;;;;0.32;0.20;;;16.50;88.20;;;;;;5038962;28;20040;-37
2022/08/31 01:05:01;;;;;;;1.20;0.30;;;16.50;88.30;;;;;;5037317;28;20128;-36
2022/08/31 01:07:27;;;;;;;0.95;0.20;;;16.50;88.20;;;;;;5036751;28;20115;-37
2022/08/31 01:09:54;;;;;;;0.77;0.22;;;16.40;88.00;;;;;;5039048;28;20091;-37
2022/08/31 01:12:20;;;;;;;1.40;0.20;;;16.40;87.80;;;;;;5033497;28;21695;-37
2022/08/31 01:14:46;;;;;;;2.92;0.30;;;16.40;87.90;;;;;;5030969;28;20060;-38
2022/08/31 01:17:11;;;;;;;0.47;0.30;;;16.40;87.50;;;;;;5034797;28;20038;-37
2022/08/31 01:19:37;;;;;;;1.98;0.20;;;16.50;86.90;;;;;;5034548;28;20045;-37
2022/08/31 01:22:18;;;;;;;0.45;0.30;;;16.50;86.40;;;;;;5036982;28;20088;-37
2022/08/31 01:24:47;;;;;;;1.98;0.30;;;16.50;85.60;;;;;;5038944;28;20124;-37
2022/08/31 01:27:15;;;;;;;1.52;0.22;;;16.50;84.80;;;;;;5035173;28;20049;-45
2022/08/31 01:29:41;;;;;;;4.97;0.20;;;16.50;84.20;;;;;;5041248;28;20045;-37
2022/08/31 01:32:07;;;;;;;0.88;0.20;;;16.40;83.50;;;;;;5033397;28;20233;-37
2022/08/31 01:34:33;;;;;;;8.02;0.50;;;16.40;82.80;;;;;;5037488;28;20115;-37
2022/08/31 01:36:59;;;;;;;0.60;0.30;;;16.40;82.30;;;;;;5035404;28;20112;-38
2022/08/31 01:39:26;;;;;;;1.10;0.20;;;16.40;81.70;;;;;;5041074;28;20052;-38
2022/08/31 01:41:52;;;;;;;1.60;0.20;;;16.40;81.40;;;;;;5038718;28;20418;-41
2022/08/31 01:44:24;;;;;;;3.60;0.30;;;16.40;81.20;;;;;;5042939;28;20092;-37
2022/08/31 01:46:50;;;;;;;0.52;0.30;;;16.40;80.80;;;;;;5040343;28;20060;-37
2022/08/31 01:49:17;;;;;;;0.50;0.15;;;16.40;80.40;;;;;;5041888;28;20483;-37
2022/08/31 01:51:44;;;;;;;1.40;0.10;;;16.30;80.10;;;;;;5045257;28;20132;-37
2022/08/31 01:54:10;;;;;;;0.43;0.20;;;16.40;79.90;;;;;;5043050;28;20099;-36
2022/08/31 01:56:41;;;;;;;0.57;0.30;;;16.30;79.60;;;;;;5037446;28;20045;-38
2022/08/31 01:59:09;;;;;;;0.65;0.15;;;16.30;79.20;;;;;;5043310;28;20529;-37
2022/08/31 02:01:38;;;;;;;1.23;0.20;;;16.30;78.90;;;;;;5038014;28;20037;-37
2022/08/31 02:04:07;;;;;;;1.33;0.20;;;16.30;78.50;;;;;;5038963;28;20037;-37
2022/08/31 02:06:34;;;;;;;1.05;0.17;;;16.20;78.20;;;;;;5040178;28;20099;-37
2022/08/31 02:09:00;;;;;;;0.77;0.25;;;16.20;78.20;;;;;;5035931;28;20491;-39
2022/08/31 02:11:26;;;;;;;0.60;0.15;;;16.20;78.20;;;;;;5037058;28;20088;-37
2022/08/31 02:13:52;;;;;;;0.40;0.15;;;16.10;78.00;;;;;;5041187;28;20065;-37
2022/08/31 02:16:18;;;;;;;0.98;0.20;;;16.10;78.80;;;;;;5041255;28;20090;-36
2022/08/31 02:18:44;;;;;;;0.60;0.20;;;16.00;77.90;;;;;;5043043;28;20116;-36
2022/08/31 02:21:12;;;;;;;0.28;0.10;;;16.00;77.80;;;;;;5041061;28;20045;-37
2022/08/31 02:23:38;;;;;;;1.75;0.20;;;15.90;77.90;;;;;;5037286;28;20064;-37
2022/08/31 02:26:04;;;;;;;0.70;0.20;;;15.90;78.00;;;;;;5043962;28;20040;-38
2022/08/31 02:28:29;;;;;;;0.95;0.20;;;15.80;77.90;;;;;;5036538;28;20048;-38
2022/08/31 02:30:55;;;;;;;0.68;0.20;;;15.80;78.10;;;;;;5037783;28;20298;-40
2022/08/31 02:33:21;;;;;;;1.63;0.30;;;15.70;78.10;;;;;;5042234;28;20090;-38
2022/08/31 02:35:46;;;;;;;0.40;0.17;;;15.70;78.40;;;;;;5042881;28;20039;-38
2022/08/31 02:38:12;;;;;;;0.88;0.20;;;15.60;78.50;;;;;;5040446;28;20041;-37
2022/08/31 02:40:39;;;;;;;1.15;0.20;;;15.50;78.80;;;;;;5043613;28;20041;-38
2022/08/31 02:43:07;;;;;;;1.15;0.10;;;15.50;79.10;;;;;;5038814;28;20044;-38
2022/08/31 02:45:32;;;;;;;1.85;0.20;;;15.50;79.40;;;;;;5037915;28;20069;-38
2022/08/31 02:47:58;;;;;;;0.40;0.10;;;15.40;79.70;;;;;;5035557;28;20068;-38
2022/08/31 02:50:24;;;;;;;0.50;0.25;;;15.40;79.80;;;;;;5039049;28;20049;-38
2022/08/31 02:52:52;;;;;;;0.25;0.10;;;15.30;80.00;;;;;;5038103;28;20041;-37
2022/08/31 02:55:18;;;;;;;0.22;0.10;;;15.30;80.20;;;;;;5041382;28;20080;-38
2022/08/31 02:57:44;;;;;;;0.88;0.15;;;15.30;80.20;;;;;;5042640;28;20032;-38
2022/08/31 03:00:10;;;;;;;0.63;0.10;;;15.20;80.50;;;;;;5039612;28;20033;-37
2022/08/31 03:02:36;;;;;;;0.82;0.20;;;15.30;80.80;;;;;;5043957;28;20043;-37
2022/08/31 03:05:06;;;;;;;0.98;0.20;;;15.20;80.90;;;;;;5040409;28;20155;-37
2022/08/31 03:07:33;;;;;;;0.80;0.22;;;15.20;81.10;;;;;;5036899;28;20459;-37
2022/08/31 03:10:00;;;;;;;3.05;0.28;;;15.10;81.40;;;;;;5041855;28;20041;-37
2022/08/31 03:12:26;;;;;;;1.20;0.20;;;15.10;81.70;;;;;;5040194;28;20076;-37
2022/08/31 03:14:51;;;;;;;1.50;0.30;;;15.10;81.90;;;;;;5039221;28;20119;-38
2022/08/31 03:17:17;;;;;;;0.50;0.20;;;15.00;82.00;;;;;;5036200;28;20037;-37
2022/08/31 03:19:43;;;;;;;0.50;0.20;;;15.00;82.20;;;;;;5034955;28;20029;-37
2022/08/31 03:22:09;;;;;;;0.82;0.20;;;14.90;82.20;;;;;;5037865;28;20518;-37
2022/08/31 03:24:35;;;;;;;1.38;0.25;;;14.90;82.50;;;;;;5037312;28;20091;-36
2022/08/31 03:27:00;;;;;;;0.40;0.20;;;14.90;82.90;;;;;;5037394;28;20037;-36
2022/08/31 03:29:26;;;;;;;0.52;0.13;;;14.80;82.80;;;;;;5038878;28;20654;-37
2022/08/31 03:31:52;;;;;;;1.05;0.20;;;14.80;83.00;;;;;;5038253;28;20051;-37
2022/08/31 03:34:17;;;;;;;0.30;0.10;;;14.80;83.10;;;;;;5037249;28;20506;-38
2022/08/31 03:36:43;;;;;;;0.47;0.30;;;14.70;83.40;;;;;;5036209;28;20513;-36
2022/08/31 03:39:09;;;;;;;1.65;0.20;;;14.70;83.40;;;;;;5038146;28;20094;-37
2022/08/31 03:41:34;;;;;;;0.47;0.20;;;14.60;83.80;;;;;;5040995;28;20034;-37
2022/08/31 03:44:00;;;;;;;0.40;0.20;;;14.60;83.90;;;;;;5038554;28;20037;-37
2022/08/31 03:46:28;;;;;;;1.35;0.20;;;14.60;84.10;;;;;;5039553;28;20059;-37
2022/08/31 03:48:53;;;;;;;0.25;0.20;;;14.50;84.20;;;;;;5040067;28;20037;-37
2022/08/31 03:51:19;;;;;;;0.88;0.13;;;14.50;84.30;;;;;;5037916;28;20059;-38
2022/08/31 03:53:45;;;;;;;1.38;0.30;;;14.50;84.70;;;;;;5036040;28;20042;-37
2022/08/31 03:56:11;;;;;;;3.17;0.20;;;14.40;84.90;;;;;;5035991;28;20439;-37
2022/08/31 03:58:37;;;;;;;0.65;0.17;;;14.40;85.40;;;;;;5038488;28;20112;-38
2022/08/31 04:01:04;;;;;;;0.82;0.20;;;14.30;85.70;;;;;;5034676;28;20068;-41
2022/08/31 04:03:29;;;;;;;0.40;0.20;;;14.30;85.90;;;;;;5037431;28;20453;-38
2022/08/31 04:05:55;;;;;;;0.60;0.20;;;14.30;86.40;;;;;;5035917;28;20032;-38
2022/08/31 04:08:21;;;;;;;0.25;0.10;;;14.20;87.00;;;;;;5035476;28;20501;-37
2022/08/31 04:10:50;;;;;;;0.60;0.20;;;14.20;87.50;;;;;;5039364;28;20037;-37
2022/08/31 04:13:15;;;;;;;0.60;0.20;;;14.10;88.00;;;;;;5035208;28;20034;-37
2022/08/31 04:15:41;;;;;;;0.43;0.20;;;14.10;88.10;;;;;;5040958;28;20110;-37
2022/08/31 04:18:07;;;;;;;0.80;0.28;;;14.00;88.60;;;;;;5037490;28;20045;-37
2022/08/31 04:20:35;;;;;;;0.28;0.10;;;14.00;88.80;;;;;;5036145;28;20073;-38
2022/08/31 04:23:01;;;;;;;0.43;0.20;;;14.00;89.40;;;;;;5041525;28;20052;-38
2022/08/31 04:25:26;;;;;;;0.65;0.30;;;13.90;90.10;;;;;;5034721;28;20049;-38
2022/08/31 04:27:55;;;;;;;0.50;0.20;;;13.90;90.30;;;;;;5034237;28;20387;-37
2022/08/31 04:30:20;;;;;;;0.30;0.10;;;13.80;90.40;;;;;;5030189;28;20040;-37
2022/08/31 04:32:47;;;;;;;0.52;0.10;;;13.80;90.50;;;;;;5032968;28;20544;-37
2022/08/31 04:35:13;;;;;;;0.47;0.20;;;13.80;90.60;;;;;;5034666;28;20085;-37
2022/08/31 04:37:40;;;;;;;0.63;0.28;;;13.80;91.20;;;;;;5041699;28;20048;-39
2022/08/31 04:40:16;;;;;;;0.50;0.20;;;13.80;90.80;;;;;;5037621;28;20384;-35
2022/08/31 04:42:46;;;;;;;1.63;0.30;;;13.70;91.10;;;;;;5039044;28;20605;-37
2022/08/31 04:45:12;;;;;;;0.52;0.20;;;13.70;91.20;;;;;;5038468;28;21077;-37
2022/08/31 04:47:40;;;;;;;3.50;0.30;;;13.70;91.60;;;;;;5039147;28;20502;-37
2022/08/31 04:50:11;;;;;;;0.50;0.20;;;13.70;91.70;;;;;;5033392;28;20091;-37
2022/08/31 04:52:36;;;;;;;0.77;0.20;;;13.60;91.70;;;;;;5033322;28;20040;-38
2022/08/31 04:55:03;;;;;;;0.40;0.20;;;13.60;91.90;;;;;;5039782;28;20030;-37
2022/08/31 04:57:30;;;;;;;3.80;0.30;;;13.60;92.00;;;;;;5037811;28;20041;-37
2022/08/31 04:59:56;;;;;;;0.93;0.30;;;13.50;92.30;;;;;;5038148;28;20040;-37
2022/08/31 05:02:22;;;;;;;0.70;0.28;;;13.50;92.30;;;;;;5035869;28;20494;-38
2022/08/31 05:04:47;;;;;;;0.45;0.20;;;13.50;92.50;;;;;;5037572;28;20044;-38
2022/08/31 05:07:13;;;;;;;0.88;0.22;;;13.50;92.50;;;;;;5032728;28;20036;-37
2022/08/31 05:09:39;;;;;;;1.42;0.32;;;13.50;92.70;;;;;;5037475;28;20495;-38
2022/08/31 05:12:04;;;;;;;0.95;0.20;;;13.40;92.80;;;;;;5036502;28;20049;-38
2022/08/31 05:14:30;;;;;;;1.25;0.30;;;13.50;93.10;;;;;;5039851;28;20095;-38
2022/08/31 05:16:56;;;;;;;0.60;0.20;;;13.40;93.30;;;;;;5040496;28;20033;-38
2022/08/31 05:19:21;;;;;;;0.50;0.20;;;13.40;93.50;;;;;;5040074;28;20037;-37
2022/08/31 05:21:47;;;;;;;0.43;0.20;;;13.40;93.60;;;;;;5042967;28;20116;-38
2022/08/31 05:24:16;;;;;;;2.92;0.22;;;13.40;93.70;;;;;;5038511;28;20119;-37
2022/08/31 05:26:47;;;;;;;2.70;0.10;;;13.40;93.60;;;;;;5040239;28;20524;-37
2022/08/31 05:29:13;;;;;;;2.10;0.20;;;13.40;93.60;;;;;;5042608;28;20048;-37
2022/08/31 05:31:40;;;;;;;3.53;0.30;;;13.40;93.80;;;;;;5036704;28;20045;-37
2022/08/31 05:37:49;;;;;;;1.88;0.20;;;13.40;94.20;;;;;;5039948;28;20035;-37
2022/08/31 05:40:15;;;;;;;1.00;0.35;;;13.40;94.40;;;;;;5036387;28;20169;-38
2022/08/31 05:42:40;;;;;;;1.75;0.30;;;13.40;94.40;;;;;;5039007;28;20509;-37
2022/08/31 05:45:06;;;;;;;1.27;0.20;;;13.50;94.40;;;;;;5035810;28;20047;-37
2022/08/31 05:47:32;;;;;;;0.50;0.20;;;13.50;94.80;;;;;;5035341;28;20659;-38
2022/08/31 05:49:58;;;;;;;0.60;0.20;;;13.50;94.70;;;;;;5040831;28;20045;-36
2022/08/31 05:52:23;;;;;;;0.70;0.22;;;13.50;94.90;;;;;;5039695;28;20048;-37
2022/08/31 05:54:50;;;;;;;0.30;0.20;;;13.60;94.80;;;;;;5038609;28;20446;-38
2022/08/31 05:57:15;;;;;;;0.50;0.20;;;13.60;94.70;;;;;;5035099;28;20041;-37
2022/08/31 05:59:41;;;;;;;0.77;0.30;;;13.70;94.70;;;;;;5036158;28;20052;-37
2022/08/31 06:02:10;;;;;;;2.25;0.30;;;13.80;94.70;;;;;;5043697;28;20080;-36
2022/08/31 06:04:35;;;;;;;1.42;0.25;;;13.90;94.60;;;;;;5045067;28;20072;-37
2022/08/31 06:07:01;;;;;;;0.85;0.35;;;13.90;94.70;;;;;;5038725;28;21781;-38
2022/08/31 06:09:26;;;;;;;0.88;0.40;;;14.00;94.70;;;;;;5040962;28;20585;-37
2022/08/31 06:11:52;;;;;;;0.95;0.40;;;14.10;94.50;;;;;;5042509;28;20044;-40
2022/08/31 06:14:21;;;;;;;0.63;0.22;;;14.10;94.40;;;;;;5040000;28;20033;-38
2022/08/31 06:16:47;;;;;;;2.72;0.47;;;14.20;94.40;;;;;;5035971;28;20646;-36
2022/08/31 06:19:13;;;;;;;1.20;0.40;;;14.20;94.40;;;;;;5041270;28;20184;-37
2022/08/31 06:21:42;;;;;;;2.67;0.32;;;14.30;94.30;;;;;;5043147;28;20053;-38
2022/08/31 06:24:11;;;;;;;1.10;0.35;;;14.30;94.30;;;;;;5037243;28;20053;-37
2022/08/31 06:26:37;;;;;;;4.13;0.50;;;14.40;94.50;;;;;;5044711;28;20049;-36
2022/08/31 06:29:05;;;;;;;2.38;0.50;;;14.40;94.30;;;;;;5037783;28;20091;-36
2022/08/31 06:31:34;;;;;;;2.33;0.30;;;14.50;94.30;;;;;;5042955;28;20049;-36
2022/08/31 06:34:01;;;;;;;1.23;0.50;;;14.60;94.20;;;;;;5038685;28;20036;-37
2022/08/31 06:36:29;;;;;;;1.00;0.30;;;14.60;94.30;;;;;;5038128;28;20052;-38
2022/08/31 06:38:57;;;;;;;0.82;0.40;;;14.70;94.20;;;;;;5043572;28;20029;-37
2022/08/31 06:41:28;;;;;;;1.33;0.40;;;14.80;94.30;;;;;;5039096;28;20065;-38
2022/08/31 06:43:54;;;;;;;0.65;0.30;;;14.80;94.40;;;;;;5040766;28;20143;-37
2022/08/31 06:46:22;;;;;;;1.95;0.40;;;14.90;94.20;;;;;;5036813;28;20398;-37
2022/08/31 06:48:49;;;;;;;3.33;0.40;;;14.90;94.10;;;;;;5039611;28;20108;-37
2022/08/31 06:51:16;;;;;;;0.85;0.30;;;15.00;94.20;;;;;;5033585;28;20060;-37
2022/08/31 06:53:42;;;;;;;1.52;0.40;;;15.10;94.20;;;;;;5039227;28;20418;-37
2022/08/31 06:56:28;;;;;;;1.52;0.30;;;15.20;94.20;;;;;;5041306;28;20047;-37
2022/08/31 06:58:54;;;;;;;1.27;0.35;;;15.30;94.50;;;;;;5038930;28;20045;-37
2022/08/31 07:01:22;;;;;;;1.55;0.50;;;15.30;93.90;;;;;;5041489;28;20037;-38
2022/08/31 07:03:49;;;;;;;3.15;0.47;;;15.40;94.00;;;;;;5039473;28;20041;-39
2022/08/31 07:06:20;;;;;;;1.42;0.30;;;15.40;93.90;;;;;;5038049;28;20033;-37
2022/08/31 07:08:50;;;;;;;2.05;0.40;;;15.50;93.90;;;;;;5043736;28;20123;-37
2022/08/31 07:11:19;;;;;;;2.03;0.50;;;15.50;93.90;;;;;;5044325;28;20397;-37
2022/08/31 07:13:46;;;;;;;2.70;0.40;;;15.70;94.00;;;;;;5038774;28;20042;-38
2022/08/31 07:16:15;;;;;;;1.30;0.40;;;15.80;93.80;;;;;;5040765;28;20033;-37
2022/08/31 07:18:42;;;;;;;1.75;0.35;;;15.90;93.70;;;;;;5035539;28;20037;-37
2022/08/31 07:21:32;;;;;;;1.60;0.60;;;15.90;93.60;;;;;;5038483;28;20037;-37
2022/08/31 07:24:01;;;;;;;1.23;0.50;;;16.00;93.40;;;;;;5035400;28;20514;-37
2022/08/31 07:26:31;;;;;;;2.25;0.47;;;16.10;93.10;;;;;;5033885;28;20072;-36
2022/08/31 07:28:58;;;;;;;1.35;0.40;;;16.20;93.00;;;;;;5035306;28;20762;-38
2022/08/31 07:31:38;;;;;;;2.10;0.52;;;16.20;92.80;;;;;;5034785;28;21450;-37
2022/08/31 07:34:06;;;;;;;0.65;0.30;;;16.30;92.80;;;;;;5036528;28;20440;-38
2022/08/31 07:42:07;;;;;;;3.03;0.45;;;16.40;92.70;;;;;;5041702;28;20436;-37
2022/08/31 07:42:08;;;;;;;2.33;0.50;;;16.60;92.30;;;;;;5042118;28;20037;-37
2022/08/31 07:44:34;;;;;;;0.95;0.50;;;16.70;92.00;;;;;;5038118;28;20029;-38
2022/08/31 07:47:01;;;;;;;1.27;0.43;;;16.80;91.80;;;;;;5038999;28;20053;-37
2022/08/31 07:49:26;;;;;;;1.42;0.32;;;16.90;91.60;;;;;;5035345;28;20095;-38
2022/08/31 07:51:54;;;;;;;2.00;0.38;;;17.00;91.30;;;;;;5038693;28;20037;-38
2022/08/31 07:54:26;;;;;;;1.83;0.40;;;17.10;90.90;;;;;;5040584;28;20867;-38
2022/08/31 07:56:59;;;;;;;2.60;0.32;;;17.20;90.30;;;;;;5037804;28;20041;-38
2022/08/31 07:59:25;;;;;;;1.23;0.30;;;17.30;89.90;;;;;;5041418;28;20483;-38
2022/08/31 08:01:54;;;;;;;1.95;0.20;;;17.40;88.00;;;;;;5042890;28;20051;-37
2022/08/31 08:04:24;;;;;;;10.63;0.60;;;17.40;87.60;;;;;;5036106;28;20049;-38
2022/08/31 08:06:54;;;;;;;1.27;0.30;;;17.50;86.70;;;;;;5035819;28;20410;-37
2022/08/31 08:09:24;;;;;;;3.20;0.30;;;17.50;86.30;;;;;;5038510;28;20136;-37
2022/08/31 08:12:05;;;;;;;1.98;0.52;;;17.60;85.80;;;;;;5035428;28;20068;-37
2022/08/31 08:14:34;;;;;;;3.78;0.82;;;17.70;85.30;;;;;;5036977;28;20126;-37
2022/08/31 08:17:01;;;;;;;2.10;0.22;;;17.70;85.10;;;;;;5038612;28;20044;-38
2022/08/31 08:19:27;;;;;;;2.90;0.57;;;17.80;85.30;;;;;;5037191;28;20041;-37
2022/08/31 08:21:54;;;;;;;2.45;0.20;;;17.90;84.40;;;;;;5040451;28;20431;-38
2022/08/31 08:24:20;;;;;;;1.08;0.25;;;18.00;83.70;;;;;;5036009;28;20469;-37
2022/08/31 08:26:48;;;;;;;2.38;0.22;;;18.10;82.70;;;;;;5037264;28;20041;-38
2022/08/31 08:29:15;;;;;;;0.75;0.10;;;18.20;81.80;;;;;;5037326;28;20044;-37
2022/08/31 08:31:42;;;;;;;1.75;0.20;;;18.30;81.50;;;;;;5033575;28;20535;-37
2022/08/31 08:34:09;;;;;;;1.05;0.30;;;18.40;81.90;;;;;;5036555;28;20091;-38
2022/08/31 08:36:35;;;;;;;1.67;0.20;;;18.50;80.60;;;;;;5036299;28;20760;-38
2022/08/31 08:39:04;;;;;;;0.73;0.30;;;18.60;80.10;;;;;;5037877;28;20415;-38
2022/08/31 08:41:33;;;;;;;1.58;0.30;;;18.70;78.60;;;;;;5034936;28;20056;-37
2022/08/31 08:44:01;;;;;;;3.92;0.40;;;18.70;78.60;;;;;;5038442;28;20045;-37
2022/08/31 08:46:38;;;;;;;0.47;0.20;;;18.70;78.40;;;;;;5042171;28;20088;-37
2022/08/31 08:49:14;;;;;;;1.40;0.30;;;18.80;77.10;;;;;;5035790;28;20048;-38
2022/08/31 08:51:41;;;;;;;3.17;0.40;;;18.90;76.40;;;;;;5036654;28;20628;-38
2022/08/31 08:54:12;;;;;;;0.95;0.20;;;19.00;76.20;;;;;;5035691;28;20033;-38
2022/08/31 08:56:40;;;;;;;0.88;0.30;;;19.10;75.70;;;;;;5040458;28;20032;-38
2022/08/31 08:59:10;;;;;;;3.03;0.30;;;19.20;75.10;;;;;;5035868;28;20037;-38
2022/08/31 09:01:36;;;;;;;3.00;0.40;;;19.20;74.50;;;;;;5032015;28;20065;-38
2022/08/31 09:04:15;;;;;;;3.13;0.30;;;19.30;74.40;;;;;;5036573;28;20077;-37
2022/08/31 09:07:01;;;;;;;3.72;0.35;;;19.40;75.00;;;;;;5036547;28;20072;-36
2022/08/31 09:09:43;;;;;;;0.40;0.20;;;19.60;75.10;;;;;;5038040;28;20120;-37
2022/08/31 09:12:35;;;;;;;4.20;0.32;;;19.70;74.30;;;;;;5035172;28;20030;-36
2022/08/31 09:15:35;;;;;;;0.75;0.30;;;19.90;72.70;;;;;;5039892;28;20044;-36
2022/08/31 09:18:39;;;;;;;0.50;0.30;;;19.90;72.30;;;;;;5037690;28;20498;-37
2022/08/31 09:21:19;;;;;;;4.32;0.30;;;20.00;72.00;;;;;;5036621;28;20045;-38
2022/08/31 09:24:03;;;;;;;1.52;0.30;;;20.20;71.40;;;;;;5040106;28;20099;-36
2022/08/31 09:26:34;;;;;;;0.30;0.10;;;20.30;71.70;;;;;;5039763;28;20033;-37
2022/08/31 09:29:02;;;;;;;1.38;0.30;;;20.40;71.10;;;;;;5036143;28;20116;-37
2022/08/31 09:31:36;;;;;;;1.00;0.30;;;20.50;70.30;;;;;;5033256;28;20041;-37
2022/08/31 09:34:05;;;;;;;0.52;0.20;;;20.60;69.10;;;;;;5030781;28;20049;-37
2022/08/31 09:36:37;;;;;;;2.67;0.68;;;20.70;68.90;;;;;;5036994;28;20040;-37
2022/08/31 09:39:27;;;;;;;13.10;1.00;;;20.70;67.00;;;;;;5044578;28;20044;-37
2022/08/31 09:41:56;;;;;;;3.85;0.40;;;20.80;65.30;;;;;;5032130;28;20056;-36
2022/08/31 09:44:38;;;;;;;0.75;0.25;;;20.80;65.10;;;;;;5034829;28;20045;-36
2022/08/31 09:47:13;;;;;;;0.93;0.30;;;20.80;64.40;;;;;;5037599;28;20044;-37
2022/08/31 09:49:39;;;;;;;3.45;0.38;;;20.90;64.60;;;;;;5042472;28;20040;-37
2022/08/31 09:52:17;;;;;;;2.05;0.35;;;21.00;63.40;;;;;;5036235;28;20202;-37
2022/08/31 09:55:16;;;;;;;0.75;0.30;;;21.20;59.60;;;;;;5039252;28;20044;-37
2022/08/31 09:57:54;;;;;;;5.13;0.30;;;21.20;59.70;;;;;;5034107;28;20068;-37
2022/08/31 10:00:30;;;;;;;1.48;0.20;;;21.30;58.50;;;;;;5041237;28;20095;-36
2022/08/31 10:03:07;;;;;;;3.38;0.40;;;21.30;56.00;;;;;;5035396;28;20107;-36
2022/08/31 10:05:39;;;;;;;2.10;0.30;;;21.30;55.50;;;;;;5035695;28;20095;-37
2022/08/31 10:08:19;;;;;;;1.73;0.30;;;21.40;55.00;;;;;;5038864;28;20077;-37
2022/08/31 10:10:48;;;;;;;2.22;0.50;;;21.50;55.30;;;;;;5042116;28;20049;-37
2022/08/31 10:13:36;;;;;;;2.15;0.20;;;21.60;54.80;;;;;;5042061;28;20037;-37
2022/08/31 10:16:13;;;;;;;0.47;0.10;;;21.70;53.00;;;;;;5040957;28;20047;-37
2022/08/31 10:19:21;;;;;;;2.63;0.73;;;21.80;52.30;;;;;;5038785;28;20041;-37
2022/08/31 10:21:50;;;;;;;2.05;0.20;;;21.90;50.60;;;;;;5041283;28;20380;-37
2022/08/31 10:24:45;;;;;;;1.10;0.20;;;22.00;51.40;;;;;;5038828;28;20578;-37
2022/08/31 10:27:19;;;;;;;0.73;0.30;;;22.10;49.80;;;;;;5035341;28;20045;-40
2022/08/31 10:29:53;;;;;;;1.90;0.40;;;22.10;49.40;;;;;;5042215;28;20064;-37
2022/08/31 10:32:39;;;;;;;0.60;0.20;;;22.10;49.10;;;;;;5040404;28;20041;-37
2022/08/31 10:35:11;;;;;;;2.55;0.30;;;22.10;48.50;;;;;;5037807;28;20116;-37
2022/08/31 10:37:51;;;;;;;0.65;0.20;;;22.20;48.80;;;;;;5040863;28;20033;-54
2022/08/31 10:40:30;;;;;;;4.05;0.30;;;22.20;47.80;;;;;;5037205;28;20076;-36
2022/08/31 10:43:08;;;;;;;0.93;0.20;;;22.20;47.70;;;;;;5038436;28;20470;-37
2022/08/31 10:45:41;;;;;;;1.10;0.28;;;22.30;47.10;;;;;;5035699;28;20565;-37
2022/08/31 10:48:09;;;;;;;2.75;0.20;;;22.30;47.40;;;;;;5037848;28;20572;-37
2022/08/31 10:50:53;;;;;;;2.08;0.22;;;22.40;46.90;;;;;;5040144;28;20506;-36
2022/08/31 10:53:21;;;;;;;3.90;0.75;;;22.50;46.00;;;;;;5040627;28;20056;-37
2022/08/31 10:55:53;;;;;;;0.63;0.25;;;22.50;46.40;;;;;;5040249;28;20032;-37
2022/08/31 10:58:47;;;;;;;2.53;0.20;;;22.60;46.00;;;;;;5036059;28;20037;-36
2022/08/31 11:01:37;;;;;;;2.90;0.20;;;22.70;44.90;;;;;;5042548;28;20037;-37
2022/08/31 11:04:33;;;;;;;1.65;0.30;;;22.80;44.90;;;;;;5038125;28;20399;-37
2022/08/31 11:07:17;;;;;;;1.20;0.20;;;22.90;44.80;;;;;;5034531;28;20116;-37
2022/08/31 11:10:06;;;;;;;2.08;0.30;;;22.90;44.70;;;;;;5036099;28;20044;-37
2022/08/31 11:12:40;;;;;;;1.90;0.20;;;23.00;44.40;;;;;;5044839;28;20079;-36
2022/08/31 11:15:30;;;;;;;2.58;0.30;;;23.00;43.90;;;;;;5037729;28;20029;-37
2022/08/31 11:18:23;;;;;;;1.92;0.20;;;23.10;43.90;;;;;;5039779;28;20510;-36
2022/08/31 11:20:55;;;;;;;2.53;0.30;;;23.20;43.90;;;;;;5043391;28;20037;-37
2022/08/31 11:23:32;;;;;;;1.17;0.40;;;23.30;43.00;;;;;;5040500;28;20532;-36
2022/08/31 11:26:30;;;;;;;1.10;0.30;;;23.30;42.20;;;;;;5045003;28;20037;-36
2022/08/31 11:29:08;;;;;;;0.57;0.20;;;23.30;42.10;;;;;;5035583;28;20044;-37
2022/08/31 11:31:37;;;;;;;0.88;0.28;;;23.30;42.50;;;;;;5038105;28;20399;-36
2022/08/31 11:34:15;;;;;;;0.82;0.30;;;23.40;42.40;;;;;;5035942;28;20037;-37
2022/08/31 11:36:52;;;;;;;4.32;0.40;;;23.50;42.30;;;;;;5042802;28;20044;-36
2022/08/31 11:39:18;;;;;;;4.00;0.30;;;23.50;41.40;;;;;;5042385;28;20111;-37
2022/08/31 11:41:49;;;;;;;0.68;0.28;;;23.60;42.40;;;;;;5042856;28;20562;-37
2022/08/31 11:44:30;;;;;;;0.65;0.20;;;23.60;41.80;;;;;;5041509;28;20081;-37
2022/08/31 11:47:41;;;;;;;2.38;0.10;;;23.70;41.00;;;;;;5040177;28;20041;-36
2022/08/31 11:50:46;;;;;;;4.80;0.25;;;23.80;40.70;;;;;;5037056;28;20047;-37
2022/08/31 11:53:39;;;;;;;0.57;0.20;;;23.90;40.90;;;;;;5026876;28;20625;-37
2022/08/31 11:56:06;;;;;;;4.45;0.30;;;24.00;40.70;;;;;;5035962;28;20544;-38
2022/08/31 11:58:38;;;;;;;1.15;0.25;;;24.20;40.90;;;;;;5042233;28;20474;-37
2022/08/31 12:01:27;;;;;;;1.50;0.30;;;24.20;40.40;;;;;;5036149;28;20403;-46
2022/08/31 12:04:03;;;;;;;0.88;0.22;;;24.40;40.40;;;;;;5041168;28;20552;-37
2022/08/31 12:06:32;;;;;;;1.77;0.40;;;24.60;39.40;;;;;;5036264;28;20048;-37
2022/08/31 12:09:10;;;;;;;3.45;0.30;;;24.60;38.90;;;;;;5041036;28;20076;-38
2022/08/31 12:11:55;;;;;;;2.40;0.20;;;24.70;38.70;;;;;;5037641;28;20084;-37
2022/08/31 12:14:50;;;;;;;1.85;0.40;;;24.80;38.10;;;;;;5040078;28;20584;-40
2022/08/31 12:17:27;;;;;;;0.88;0.30;;;24.90;38.10;;;;;;5038670;28;20037;-37
2022/08/31 12:20:15;;;;;;;0.47;0.20;;;25.00;38.80;;;;;;5040569;28;20120;-38
2022/08/31 12:26:03;;;;;;;3.08;0.40;;;25.30;38.00;;;;;;5039444;28;20141;-37
2022/08/31 12:29:02;;;;;;;1.65;0.40;;;25.40;37.00;;;;;;5018364;28;20053;-38
2022/08/31 12:31:28;;;;;;;0.85;0.30;;;25.50;37.10;;;;;;5036888;28;20048;-37
2022/08/31 12:34:10;;;;;;;0.75;0.40;;;25.50;37.00;;;;;;5039829;28;20605;-37
2022/08/31 12:36:36;;;;;;;0.93;0.32;;;25.70;36.00;;;;;;5036045;28;20033;-37
2022/08/31 12:39:09;;;;;;;1.77;0.80;;;25.80;36.30;;;;;;5031129;28;20095;-36
2022/08/31 12:41:52;;;;;;;1.98;0.57;;;25.90;36.60;;;;;;5033121;28;20083;-39
2022/08/31 12:44:21;;;;;;;1.58;0.40;;;26.00;36.80;;;;;;5037287;28;20038;-37
2022/08/31 12:46:56;;;;;;;1.52;0.43;;;26.10;36.50;;;;;;5037028;28;20041;-38
2022/08/31 12:49:59;;;;;;;2.53;0.47;;;26.30;36.30;;;;;;5035660;28;20539;-36
2022/08/31 12:52:44;;;;;;;4.20;0.50;;;26.40;35.20;;;;;;5033722;28;20058;-37
2022/08/31 12:55:36;;;;;;;2.17;0.30;;;26.50;34.20;;;;;;5037211;28;20513;-38
2022/08/31 12:58:39;;;;;;;1.50;0.25;;;26.50;34.70;;;;;;5035774;28;20051;-37
2022/08/31 13:01:11;;;;;;;2.20;0.40;;;26.60;34.90;;;;;;5039701;28;20041;-39
2022/08/31 13:03:45;;;;;;;2.55;0.40;;;26.70;34.50;;;;;;5035103;28;20038;-37
2022/08/31 13:06:23;;;;;;;0.98;0.20;;;26.90;34.00;;;;;;5037102;28;20033;-40
2022/08/31 13:08:50;;;;;;;1.70;0.45;;;27.30;33.30;;;;;;5034229;28;20045;-39
2022/08/31 13:11:38;;;;;;;0.95;0.30;;;27.70;32.60;;;;;;5037159;28;20072;-38
2022/08/31 13:14:09;;;;;;;1.00;0.30;;;28.40;31.10;;;;;;5036107;28;20034;-41
2022/08/31 13:16:45;;;;;;;2.40;0.33;;;28.60;31.00;;;;;;5034308;28;20044;-38
2022/08/31 13:19:26;;;;;;;2.97;0.50;;;28.90;30.80;;;;;;5034622;28;20056;-40
2022/08/31 13:22:15;;;;;;;0.82;0.40;;;29.20;30.10;;;;;;5036891;28;20526;-40
2022/08/31 13:24:45;;;;;;;1.38;0.50;;;29.30;29.70;;;;;;5034942;28;20103;-36